Time;durP1;ratioP1;P1;durP2;ratioP2;P2;SDS_P1;SDS_P2;PMS_P1;PMS_P2;Temp;Humidity;BMP_temperature;BMP_pressure;BME280_temperature;BME280_humidity;BME280_pressure;Samples;Min_cycle;Max_cycle;Signal;HPM_P1;HPM_P2
2021/09/29 00:00:39;;;;;;;27.30;24.50;;;;;;;7.23;100.00;99682.69;2049327;29;20195;-75
2021/09/29 00:01:41;;;;;;;27.47;24.67;;;;;;;7.23;100.00;99694.09;2049923;29;20297;-75
2021/09/29 00:02:43;;;;;;;26.88;23.67;;;;;;;7.22;100.00;99692.50;2049936;28;20202;-76
2021/09/29 00:03:45;;;;;;;25.92;23.42;;;;;;;7.19;100.00;99685.03;2057874;28;20273;-75
2021/09/29 00:04:46;;;;;;;27.83;24.70;;;;;;;7.19;100.00;99695.66;2057848;28;20197;-75
2021/09/29 00:05:49;;;;;;;27.50;24.63;;;;;;;7.16;100.00;99682.13;2049220;29;20665;-76
2021/09/29 00:06:49;;;;;;;28.58;24.13;;;;;;;7.18;100.00;99690.59;2049499;28;20202;-76
2021/09/29 00:07:51;;;;;;;26.80;24.10;;;;;;;7.14;100.00;99689.53;2057985;28;20272;-76
2021/09/29 00:08:53;;;;;;;27.05;24.25;;;;;;;7.13;100.00;99694.03;2049228;29;20205;-76
2021/09/29 00:09:56;;;;;;;26.50;23.77;;;;;;;7.12;100.00;99688.97;2041483;29;20304;-76
2021/09/29 00:10:57;;;;;;;27.48;24.48;;;;;;;7.10;100.00;99683.94;2049531;28;20183;-76
2021/09/29 00:11:59;;;;;;;28.17;25.20;;;;;;;7.10;100.00;99686.59;2049249;29;20254;-75
2021/09/29 00:13:00;;;;;;;27.92;24.75;;;;;;;7.07;100.00;99684.47;2048851;29;20205;-76
2021/09/29 00:14:01;;;;;;;27.03;24.27;;;;;;;7.06;100.00;99688.97;2040923;29;20750;-76
2021/09/29 00:15:09;;;;;;;27.30;24.42;;;;;;;7.04;100.00;99679.69;2049286;29;20199;-75
2021/09/29 00:16:11;;;;;;;30.80;24.70;;;;;;;7.03;100.00;99683.34;2057835;28;20201;-76
2021/09/29 00:17:12;;;;;;;26.40;23.80;;;;;;;7.03;100.00;99686.00;2058023;28;20197;-76
2021/09/29 00:18:13;;;;;;;26.80;23.83;;;;;;;7.01;100.00;99688.13;2049107;29;20202;-75
2021/09/29 00:19:14;;;;;;;26.63;23.67;;;;;;;7.02;100.00;99684.41;2041232;29;20791;-76
2021/09/29 00:20:17;;;;;;;26.70;23.87;;;;;;;7.01;100.00;99688.94;2049251;29;20632;-76
2021/09/29 00:21:19;;;;;;;27.15;24.45;;;;;;;7.02;100.00;99689.72;2057928;28;20672;-75
2021/09/29 00:22:23;;;;;;;27.27;24.00;;;;;;;7.02;100.00;99689.72;2057927;28;20190;-76
2021/09/29 00:23:24;;;;;;;26.38;23.58;;;;;;;6.97;100.00;99681.75;2058018;28;20200;-75
2021/09/29 00:24:26;;;;;;;27.00;24.20;;;;;;;6.94;100.00;99676.94;2057799;28;20656;-75
2021/09/29 00:25:26;;;;;;;26.05;23.50;;;;;;;6.96;100.00;99680.16;2049131;29;20198;-76
2021/09/29 00:26:28;;;;;;;26.63;23.77;;;;;;;6.94;100.00;99680.38;2049248;29;20217;-76
2021/09/29 00:27:29;;;;;;;28.70;24.17;;;;;;;6.93;100.00;99683.31;2057789;28;20201;-76
2021/09/29 00:28:31;;;;;;;26.87;24.17;;;;;;;6.92;100.00;99682.50;2048834;29;20701;-75
2021/09/29 00:29:31;;;;;;;27.20;24.60;;;;;;;6.89;100.00;99676.94;2049189;29;20198;-75
2021/09/29 00:30:39;;;;;;;26.77;24.17;;;;;;;6.91;100.00;99690.72;2049289;28;20282;-75
2021/09/29 00:31:40;;;;;;;26.00;23.40;;;;;;;6.87;100.00;99682.50;2049172;29;20493;-75
2021/09/29 00:32:43;;;;;;;27.48;24.80;;;;;;;6.85;100.00;99681.94;2049361;28;20206;-76
2021/09/29 00:33:47;;;;;;;27.67;24.75;;;;;;;6.88;100.00;99683.28;2057768;28;20276;-75
2021/09/29 00:34:48;;;;;;;26.73;23.92;;;;;;;6.87;100.00;99676.38;2057743;28;20189;-75
2021/09/29 00:35:49;;;;;;;27.67;24.83;;;;;;;6.86;100.00;99677.41;2057993;28;20197;-75
2021/09/29 00:36:52;;;;;;;30.77;24.80;;;;;;;6.85;100.00;99681.13;2057760;28;20182;-76
2021/09/29 00:37:53;;;;;;;28.42;25.42;;;;;;;6.82;100.00;99679.00;2057984;28;20644;-75
2021/09/29 00:38:55;;;;;;;28.47;25.40;;;;;;;6.82;100.00;99679.78;2057751;28;20600;-75
2021/09/29 00:39:56;;;;;;;26.88;24.05;;;;;;;6.86;100.00;99683.53;2057740;28;20194;-75
2021/09/29 00:40:59;;;;;;;27.33;24.60;;;;;;;6.85;100.00;99689.09;2048792;29;20700;-76
2021/09/29 00:41:59;;;;;;;27.83;24.92;;;;;;;6.83;100.00;99683.25;2048634;29;20234;-76
2021/09/29 00:43:02;;;;;;;27.83;24.73;;;;;;;6.81;100.00;99672.91;2049140;29;20197;-76
2021/09/29 00:44:04;;;;;;;27.55;24.50;;;;;;;6.84;100.00;99676.88;2057770;28;20214;-76
2021/09/29 00:45:07;;;;;;;27.48;24.58;;;;;;;6.85;100.00;99679.28;2057718;28;20711;-75
2021/09/29 00:46:08;;;;;;;28.33;24.77;;;;;;;6.84;100.00;99682.97;2048734;29;20256;-76
2021/09/29 00:47:09;;;;;;;28.47;25.47;;;;;;;6.83;100.00;99675.28;2049184;29;20190;-76
2021/09/29 00:48:10;;;;;;;27.45;24.45;;;;;;;6.83;100.00;99677.94;2057916;28;20189;-76
2021/09/29 00:49:13;;;;;;;27.83;25.03;;;;;;;6.86;100.00;99678.22;2058379;28;20248;-75
2021/09/29 00:50:13;;;;;;;27.20;24.50;;;;;;;6.85;100.00;99675.81;2059507;28;20197;-75
2021/09/29 00:51:15;;;;;;;27.33;24.50;;;;;;;6.85;100.00;99681.94;2050615;29;20764;-76
2021/09/29 00:52:17;;;;;;;27.05;24.27;;;;;;;6.83;100.00;99677.94;2042734;29;20199;-76
2021/09/29 00:53:19;;;;;;;26.77;24.08;;;;;;;6.87;100.00;99679.84;2050847;28;20219;-75
2021/09/29 00:54:20;;;;;;;29.35;23.48;;;;;;;6.84;100.00;99676.88;2059307;28;20197;-75
2021/09/29 00:55:22;;;;;;;26.70;23.93;;;;;;;6.83;100.00;99672.63;2059271;28;20276;-76
2021/09/29 00:56:23;;;;;;;27.48;24.30;;;;;;;6.82;100.00;99671.84;2059252;28;20190;-76
2021/09/29 00:57:27;;;;;;;27.83;24.93;;;;;;;6.81;100.00;99670.25;2050626;29;20280;-75
2021/09/29 00:58:28;;;;;;;26.67;23.98;;;;;;;6.80;100.00;99666.00;2050995;28;20461;-75
2021/09/29 00:59:29;;;;;;;29.00;25.27;;;;;;;6.78;100.00;99668.91;2059230;28;20281;-75
2021/09/29 01:00:30;;;;;;;26.20;23.70;;;;;;;6.75;100.00;99672.06;2059219;28;20216;-76
2021/09/29 01:01:32;;;;;;;27.57;24.40;;;;;;;6.75;100.00;99663.31;2050501;29;20250;-76
2021/09/29 01:02:33;;;;;;;27.15;24.40;;;;;;;6.75;100.00;99672.06;2042723;29;20206;-75
2021/09/29 01:03:35;;;;;;;28.35;24.55;;;;;;;6.74;100.00;99672.31;2050522;29;20234;-75
2021/09/29 01:04:36;;;;;;;28.08;24.00;;;;;;;6.78;100.00;99668.91;2050545;29;20657;-75
2021/09/29 01:05:41;;;;;;;28.02;24.17;;;;;;;6.79;100.00;99667.06;2050556;29;20202;-76
2021/09/29 01:06:47;;;;;;;27.02;24.35;;;;;;;6.80;100.00;99669.44;2050461;29;20206;-76
2021/09/29 01:07:55;;;;;;;25.25;22.95;;;;;;;6.79;100.00;99665.19;2050829;29;20174;-76
2021/09/29 01:09:01;;;;;;;26.83;24.17;;;;;;;6.79;100.00;99667.06;2050509;29;20195;-76
2021/09/29 01:10:06;;;;;;;26.73;23.85;;;;;;;6.78;100.00;99668.91;2050910;29;20645;-76
2021/09/29 01:11:12;;;;;;;27.17;24.40;;;;;;;6.78;100.00;99660.97;2051184;29;20181;-75
2021/09/29 01:12:19;;;;;;;27.33;24.55;;;;;;;6.80;100.00;99664.13;2050539;29;20665;-75
2021/09/29 01:13:23;;;;;;;26.70;24.20;;;;;;;6.78;100.00;99663.59;2043459;29;20203;-75
2021/09/29 01:14:32;;;;;;;27.13;23.70;;;;;;;6.85;100.00;99659.91;2050434;29;20226;-75
2021/09/29 01:15:40;;;;;;;26.33;23.73;;;;;;;6.89;100.00;99661.81;2050496;29;20210;-75
2021/09/29 01:16:42;;;;;;;25.70;23.05;;;;;;;7.00;100.00;99657.34;2050415;29;20221;-76
2021/09/29 01:17:46;;;;;;;25.80;23.27;;;;;;;6.94;100.00;99663.69;2042631;29;20580;-75
2021/09/29 01:18:54;;;;;;;26.00;23.15;;;;;;;6.93;100.00;99662.09;2050668;29;20591;-76
2021/09/29 01:20:04;;;;;;;25.85;23.17;;;;;;;6.97;100.00;99653.38;2050417;29;20247;-75
2021/09/29 01:21:07;;;;;;;25.48;22.88;;;;;;;6.98;100.00;99654.97;2050710;29;20549;-75
2021/09/29 01:22:13;;;;;;;26.48;23.40;;;;;;;7.02;100.00;99657.88;2050347;29;20214;-75
2021/09/29 01:23:42;;;;;;;24.98;22.15;;;;;;;6.98;100.00;99644.34;2050790;29;20179;-75
2021/09/29 01:24:49;;;;;;;25.10;22.67;;;;;;;6.96;100.00;99646.47;2051303;29;20206;-75
2021/09/29 01:25:56;;;;;;;26.00;22.10;;;;;;;6.96;100.00;99643.03;2051197;29;20243;-75
2021/09/29 01:27:00;;;;;;;25.38;22.70;;;;;;;7.02;100.00;99642.75;2051070;28;20170;-75
2021/09/29 01:28:02;;;;;;;24.02;21.73;;;;;;;7.07;100.00;99642.81;2051041;29;20692;-75
2021/09/29 01:29:05;;;;;;;26.02;23.23;;;;;;;7.01;100.00;99651.00;2050218;29;20704;-76
2021/09/29 01:30:07;;;;;;;26.25;23.75;;;;;;;6.92;100.00;99641.91;2050535;29;20282;-75
2021/09/29 01:31:08;;;;;;;25.77;23.17;;;;;;;6.89;100.00;99639.78;2051109;29;20241;-75
2021/09/29 01:32:10;;;;;;;26.85;23.17;;;;;;;6.98;100.00;99647.00;2050337;29;20245;-75
2021/09/29 01:33:13;;;;;;;25.35;22.63;;;;;;;6.91;100.00;99646.44;2050439;29;20205;-75
2021/09/29 01:34:14;;;;;;;25.30;22.70;;;;;;;6.87;100.00;99647.22;2050952;29;20302;-75
2021/09/29 01:35:16;;;;;;;26.07;23.37;;;;;;;6.88;100.00;99641.66;2050953;29;20198;-75
2021/09/29 01:36:19;;;;;;;25.73;22.98;;;;;;;6.85;100.00;99644.00;2051190;29;20658;-75
2021/09/29 01:37:20;;;;;;;25.58;22.73;;;;;;;6.85;100.00;99649.31;2050257;29;20202;-75
2021/09/29 01:38:21;;;;;;;24.77;22.27;;;;;;;6.79;100.00;99646.63;2050582;29;20206;-75
2021/09/29 01:39:26;;;;;;;24.90;22.35;;;;;;;6.83;100.00;99644.25;2050943;29;20589;-75
2021/09/29 01:40:27;;;;;;;26.13;23.42;;;;;;;6.81;100.00;99638.41;2050214;29;20221;-75
2021/09/29 01:41:31;;;;;;;25.67;22.97;;;;;;;6.80;100.00;99650.88;2050297;29;20281;-76
2021/09/29 01:42:33;;;;;;;25.30;22.55;;;;;;;6.77;100.00;99637.31;2051112;29;20430;-75
2021/09/29 01:43:35;;;;;;;26.33;23.40;;;;;;;6.74;100.00;99641.28;2050916;29;20197;-75
2021/09/29 01:44:36;;;;;;;25.30;22.77;;;;;;;6.74;100.00;99638.63;2051113;29;20556;-75
2021/09/29 01:45:38;;;;;;;26.70;23.90;;;;;;;6.82;100.00;99634.72;2051006;29;20225;-76
2021/09/29 01:46:39;;;;;;;27.15;23.30;;;;;;;6.88;100.00;99632.91;2050208;29;20206;-76
2021/09/29 01:47:42;;;;;;;24.50;22.13;;;;;;;6.84;100.00;99631.78;2050413;29;20194;-75
2021/09/29 01:48:48;;;;;;;25.27;22.00;;;;;;;6.82;100.00;99633.91;2049765;29;20207;-75
2021/09/29 01:49:51;;;;;;;25.17;22.67;;;;;;;6.83;100.00;99630.19;2042878;29;20258;-75
2021/09/29 01:50:55;;;;;;;26.23;23.50;;;;;;;6.77;100.00;99632.00;2042534;29;20679;-75
2021/09/29 01:51:57;;;;;;;25.38;22.88;;;;;;;6.74;100.00;99632.53;2050595;29;20254;-75
2021/09/29 01:52:59;;;;;;;25.55;22.67;;;;;;;6.80;100.00;99631.53;2050814;29;20555;-75
2021/09/29 01:54:02;;;;;;;25.42;22.55;;;;;;;6.77;100.00;99622.22;2050835;29;20653;-75
2021/09/29 01:55:04;;;;;;;25.05;22.58;;;;;;;6.79;100.00;99622.78;2050490;28;20685;-75
2021/09/29 01:56:06;;;;;;;25.52;22.90;;;;;;;6.78;100.00;99626.47;2050865;29;20265;-75
2021/09/29 01:57:09;;;;;;;25.63;22.58;;;;;;;6.83;100.00;99612.44;2050793;29;20190;-75
2021/09/29 01:58:13;;;;;;;27.02;22.45;;;;;;;6.86;100.00;99613.75;2050730;28;20240;-75
2021/09/29 01:59:14;;;;;;;25.10;22.60;;;;;;;6.79;100.00;99614.81;2050801;28;20226;-75
2021/09/29 02:00:17;;;;;;;25.70;22.97;;;;;;;6.79;100.00;99609.50;2050786;29;20195;-75
2021/09/29 02:01:18;;;;;;;23.70;21.30;;;;;;;6.75;100.00;99613.72;2050223;29;20217;-75
2021/09/29 02:02:20;;;;;;;23.87;21.47;;;;;;;6.79;100.00;99609.50;2050670;29;20210;-75
2021/09/29 02:03:21;;;;;;;25.08;22.38;;;;;;;6.75;100.00;99611.06;2049948;29;20285;-75
2021/09/29 02:04:23;;;;;;;26.15;21.80;;;;;;;6.75;100.00;99602.31;2050111;29;20198;-75
2021/09/29 02:05:28;;;;;;;24.20;21.85;;;;;;;6.85;100.00;99601.56;2050149;28;20198;-75
2021/09/29 02:06:33;;;;;;;24.67;21.85;;;;;;;6.92;100.00;99597.63;2050063;29;20198;-75
2021/09/29 02:07:33;;;;;;;23.65;21.45;;;;;;;6.98;100.00;99601.09;2050190;29;20190;-75
2021/09/29 02:08:35;;;;;;;23.97;21.60;;;;;;;6.96;100.00;99597.94;2050073;29;20194;-76
2021/09/29 02:09:36;;;;;;;24.23;21.73;;;;;;;6.90;100.00;99598.94;2050158;29;20202;-75
2021/09/29 02:10:37;;;;;;;24.20;21.90;;;;;;;6.87;100.00;99592.31;2050027;29;20230;-75
2021/09/29 02:11:38;;;;;;;24.85;22.35;;;;;;;6.78;100.00;99592.00;2042133;29;20556;-76
2021/09/29 02:12:42;;;;;;;23.90;21.70;;;;;;;6.84;100.00;99594.66;2050175;29;20245;-75
2021/09/29 02:13:45;;;;;;;25.92;23.33;;;;;;;6.76;100.00;99590.66;2050922;28;20201;-75
2021/09/29 02:14:46;;;;;;;26.65;22.23;;;;;;;6.65;100.00;99596.97;2049947;29;20202;-75
2021/09/29 02:15:47;;;;;;;24.77;22.38;;;;;;;6.62;100.00;99598.28;2049995;29;20206;-75
2021/09/29 02:16:50;;;;;;;24.93;22.33;;;;;;;6.60;100.00;99594.25;2050107;29;20265;-76
2021/09/29 02:17:52;;;;;;;25.27;22.50;;;;;;;6.61;100.00;99595.88;2050754;28;20198;-75
2021/09/29 02:18:54;;;;;;;25.27;22.77;;;;;;;6.57;100.00;99597.44;2050555;29;20733;-75
2021/09/29 02:19:55;;;;;;;24.35;22.00;;;;;;;6.54;100.00;99593.44;2050748;29;20198;-75
2021/09/29 02:20:58;;;;;;;25.52;22.83;;;;;;;6.65;100.00;99589.81;2049985;29;20215;-75
2021/09/29 02:21:59;;;;;;;26.88;23.17;;;;;;;6.62;100.00;99592.19;2050039;29;22493;-75
2021/09/29 02:23:01;;;;;;;24.97;22.07;;;;;;;6.58;100.00;99591.06;2050802;29;20191;-75
2021/09/29 02:24:02;;;;;;;24.67;21.65;;;;;;;6.69;100.00;99582.94;2050593;29;20190;-75
2021/09/29 02:25:05;;;;;;;24.83;22.27;;;;;;;6.90;100.00;99591.78;2050493;28;20202;-75
2021/09/29 02:26:05;;;;;;;24.73;22.10;;;;;;;6.77;100.00;99579.78;2050627;28;20194;-75
2021/09/29 02:27:09;;;;;;;25.43;22.20;;;;;;;6.74;100.00;99590.09;2049915;29;20218;-75
2021/09/29 02:28:12;;;;;;;23.88;21.52;;;;;;;6.68;100.00;99588.47;2050164;29;20190;-75
2021/09/29 02:29:15;;;;;;;32.95;22.73;;;;;;;6.57;100.00;99590.28;2049931;29;20203;-75
2021/09/29 02:30:17;;;;;;;24.00;21.60;;;;;;;6.56;100.00;99591.34;2042292;29;20739;-75
2021/09/29 02:31:18;;;;;;;24.30;21.58;;;;;;;6.62;100.00;99592.19;2041960;29;20704;-75
2021/09/29 02:32:19;;;;;;;25.07;22.43;;;;;;;6.55;100.00;99587.09;2049968;29;20591;-75
2021/09/29 02:33:29;;;;;;;24.33;21.77;;;;;;;6.59;100.00;99582.88;2050053;29;20591;-75
2021/09/29 02:34:30;;;;;;;27.05;22.25;;;;;;;6.56;100.00;99588.69;2050619;28;20245;-75
2021/09/29 02:35:32;;;;;;;27.02;21.52;;;;;;;6.49;100.00;99577.50;2050521;29;20249;-75
2021/09/29 02:36:33;;;;;;;24.88;22.33;;;;;;;6.48;100.00;99573.25;2049857;29;20260;-75
2021/09/29 02:37:35;;;;;;;24.87;22.33;;;;;;;6.51;100.00;99578.03;2041920;29;20642;-75
2021/09/29 02:38:37;;;;;;;24.70;22.27;;;;;;;6.50;100.00;99581.75;2049976;29;20208;-75
2021/09/29 02:39:39;;;;;;;23.95;21.55;;;;;;;6.48;100.00;99582.00;2050521;29;20191;-75
2021/09/29 02:40:40;;;;;;;23.88;21.45;;;;;;;6.43;100.00;99579.34;2050457;29;20205;-75
2021/09/29 02:41:42;;;;;;;24.70;22.20;;;;;;;6.43;100.00;99589.16;2050487;29;20193;-75
2021/09/29 02:42:43;;;;;;;24.38;21.92;;;;;;;6.42;100.00;99577.72;2050422;29;20685;-75
2021/09/29 02:43:44;;;;;;;25.57;22.40;;;;;;;6.37;100.00;99582.22;2050487;29;20582;-75
2021/09/29 02:44:46;;;;;;;26.27;22.65;;;;;;;6.41;100.00;99583.28;2050653;29;20206;-75
2021/09/29 02:45:48;;;;;;;24.70;22.10;;;;;;;6.35;100.00;99579.03;2050445;29;20182;-75
2021/09/29 02:46:49;;;;;;;24.45;21.95;;;;;;;6.39;100.00;99580.09;2049511;29;20202;-75
2021/09/29 02:47:53;;;;;;;24.63;22.00;;;;;;;6.31;100.00;99576.06;2049857;29;20187;-75
2021/09/29 02:48:55;;;;;;;24.77;22.02;;;;;;;6.30;100.00;99574.47;2049708;29;20206;-75
2021/09/29 02:49:57;;;;;;;24.93;22.20;;;;;;;6.29;100.00;99586.13;2049885;29;20182;-75
2021/09/29 02:50:57;;;;;;;25.25;22.65;;;;;;;6.30;100.00;99585.06;2050398;28;20198;-75
2021/09/29 02:51:59;;;;;;;25.00;22.40;;;;;;;6.26;100.00;99585.84;2050456;29;20277;-75
2021/09/29 02:53:00;;;;;;;24.80;22.23;;;;;;;6.24;100.00;99586.09;2050411;29;20182;-75
2021/09/29 02:54:02;;;;;;;24.63;21.77;;;;;;;6.23;100.00;99585.28;2050360;29;20226;-75
2021/09/29 02:55:07;;;;;;;25.02;22.38;;;;;;;6.20;100.00;99580.50;2050482;29;20660;-75
2021/09/29 02:56:08;;;;;;;25.35;22.65;;;;;;;6.18;100.00;99582.63;2049690;29;20201;-75
2021/09/29 02:57:09;;;;;;;24.75;22.25;;;;;;;6.16;100.00;99578.59;2049766;29;20190;-75
2021/09/29 02:58:11;;;;;;;28.07;22.03;;;;;;;6.17;100.00;99581.03;2050291;28;20265;-76
2021/09/29 02:59:12;;;;;;;25.52;22.25;;;;;;;6.15;100.00;99580.47;2050559;29;20625;-75
2021/09/29 03:00:15;;;;;;;26.83;21.73;;;;;;;6.18;100.00;99582.63;2050333;29;20297;-76
2021/09/29 03:01:16;;;;;;;24.17;21.85;;;;;;;6.18;100.00;99582.63;2049690;29;20198;-76
2021/09/29 03:02:20;;;;;;;25.00;22.60;;;;;;;6.14;100.00;99586.81;2049566;29;20310;-75
2021/09/29 03:03:23;;;;;;;24.75;22.13;;;;;;;6.12;100.00;99583.63;2042259;29;20330;-75
2021/09/29 03:04:24;;;;;;;24.87;22.27;;;;;;;6.11;100.00;99583.88;2049980;29;20238;-75
2021/09/29 03:05:25;;;;;;;25.23;22.35;;;;;;;6.07;100.00;99585.44;2049267;29;20744;-75
2021/09/29 03:06:27;;;;;;;25.73;22.50;;;;;;;6.11;100.00;99587.31;2049845;29;20591;-75
2021/09/29 03:07:29;;;;;;;26.55;23.05;;;;;;;6.16;100.00;99590.00;2049516;29;20212;-75
2021/09/29 03:08:31;;;;;;;27.02;22.50;;;;;;;6.21;100.00;99589.25;2049792;29;20610;-75
2021/09/29 03:09:34;;;;;;;24.65;22.10;;;;;;;6.23;100.00;99590.59;2050305;28;20669;-75
2021/09/29 03:10:38;;;;;;;24.25;21.85;;;;;;;6.23;100.00;99585.28;2050229;29;20277;-75
2021/09/29 03:11:39;;;;;;;26.55;22.67;;;;;;;6.33;100.00;99583.75;2050409;29;20202;-75
2021/09/29 03:12:40;;;;;;;25.20;22.50;;;;;;;6.32;100.00;99579.50;2049416;28;20190;-75
2021/09/29 03:13:42;;;;;;;25.03;22.40;;;;;;;6.23;100.00;99585.28;2049401;29;20289;-75
2021/09/29 03:14:43;;;;;;;26.13;23.50;;;;;;;6.15;100.00;99590.25;2049578;29;20202;-75
2021/09/29 03:15:46;;;;;;;26.05;22.90;;;;;;;6.08;100.00;99581.72;2049668;29;20198;-75
2021/09/29 03:16:48;;;;;;;24.83;22.45;;;;;;;5.99;100.00;99578.75;2049557;29;20202;-75
2021/09/29 03:17:49;;;;;;;24.52;22.17;;;;;;;6.05;100.00;99579.59;2049836;29;20286;-75
2021/09/29 03:18:51;;;;;;;24.60;22.13;;;;;;;6.04;100.00;99578.00;2050175;29;20187;-76
2021/09/29 03:19:51;;;;;;;24.75;22.13;;;;;;;6.05;100.00;99577.75;2050123;29;20244;-76
2021/09/29 03:20:53;;;;;;;25.57;22.80;;;;;;;6.00;100.00;99575.06;2050139;29;20190;-75
2021/09/29 03:21:55;;;;;;;24.88;22.35;;;;;;;5.95;100.00;99577.66;2050186;29;20193;-75
2021/09/29 03:22:58;;;;;;;24.40;22.02;;;;;;;5.99;100.00;99576.09;2050280;29;20218;-75
2021/09/29 03:24:00;;;;;;;24.35;21.95;;;;;;;5.95;100.00;99572.38;2050334;29;20544;-75
2021/09/29 03:25:01;;;;;;;26.38;23.20;;;;;;;5.91;100.00;99579.22;2049492;29;20198;-75
2021/09/29 03:26:02;;;;;;;25.43;22.70;;;;;;;5.93;100.00;99574.47;2049637;29;20782;-75
2021/09/29 03:27:05;;;;;;;27.70;22.92;;;;;;;5.94;100.00;99576.88;2050384;28;20190;-74
2021/09/29 03:28:07;;;;;;;26.25;23.55;;;;;;;5.94;100.00;99570.78;2050149;29;20245;-75
2021/09/29 03:29:07;;;;;;;25.67;22.83;;;;;;;5.89;100.00;99575.97;2050088;28;20197;-75
2021/09/29 03:30:11;;;;;;;26.03;23.37;;;;;;;5.90;100.00;99569.63;2049095;29;20245;-74
2021/09/29 03:31:14;;;;;;;26.20;23.45;;;;;;;5.89;100.00;99573.34;2049728;29;20236;-75
2021/09/29 03:32:15;;;;;;;26.02;23.33;;;;;;;5.89;100.00;99570.69;2049449;29;20225;-75
2021/09/29 03:33:16;;;;;;;27.15;23.63;;;;;;;5.89;100.00;99574.13;2049535;29;20661;-75
2021/09/29 03:34:18;;;;;;;29.57;23.70;;;;;;;5.85;100.00;99566.97;2050088;29;20543;-75
2021/09/29 03:35:19;;;;;;;24.52;22.02;;;;;;;5.81;100.00;99565.84;2049418;29;20279;-75
2021/09/29 03:36:21;;;;;;;26.03;23.23;;;;;;;5.79;100.00;99573.25;2041446;29;20705;-74
2021/09/29 03:37:25;;;;;;;25.00;22.35;;;;;;;5.79;100.00;99570.59;2049478;29;20194;-75
2021/09/29 03:38:26;;;;;;;25.50;22.55;;;;;;;5.73;100.00;99568.94;2049453;29;20341;-75
2021/09/29 03:39:28;;;;;;;27.10;24.20;;;;;;;5.72;100.00;99557.56;2049521;29;20194;-75
2021/09/29 03:40:28;;;;;;;39.05;25.48;;;;;;;5.81;100.00;99577.22;2049323;29;20213;-75
2021/09/29 03:41:30;;;;;;;27.90;24.90;;;;;;;5.80;100.00;99570.34;2049643;29;20653;-75
2021/09/29 03:42:31;;;;;;;32.72;24.77;;;;;;;5.75;100.00;99577.47;2049278;29;20201;-75
2021/09/29 03:43:35;;;;;;;27.73;24.77;;;;;;;5.79;100.00;99567.97;2041373;29;20298;-75
2021/09/29 03:44:38;;;;;;;26.00;22.90;;;;;;;5.80;100.00;99574.84;2041900;29;20214;-75
2021/09/29 03:45:39;;;;;;;24.88;22.48;;;;;;;5.78;100.00;99572.44;2041571;29;20586;-74
2021/09/29 03:46:42;;;;;;;26.23;23.53;;;;;;;5.72;100.00;99575.31;2049470;29;20257;-75
2021/09/29 03:47:44;;;;;;;29.15;23.42;;;;;;;5.66;100.00;99579.78;2048622;29;20461;-75
2021/09/29 03:48:46;;;;;;;25.35;22.70;;;;;;;5.62;100.00;99571.50;2049452;29;20191;-75
2021/09/29 03:49:47;;;;;;;24.90;22.30;;;;;;;5.61;100.00;99577.06;2050009;29;20195;-74
2021/09/29 03:50:48;;;;;;;27.33;22.93;;;;;;;5.60;100.00;99580.75;2050087;29;20182;-74
2021/09/29 03:51:52;;;;;;;25.45;22.85;;;;;;;5.60;100.00;99570.97;2049977;28;20237;-74
2021/09/29 03:52:54;;;;;;;29.13;23.02;;;;;;;5.59;100.00;99574.66;2049192;29;20233;-75
2021/09/29 03:53:55;;;;;;;25.10;22.35;;;;;;;5.59;100.00;99574.66;2049332;29;20323;-75
2021/09/29 03:54:56;;;;;;;27.37;23.60;;;;;;;5.62;100.00;99571.50;2049629;29;20225;-74
2021/09/29 03:55:57;;;;;;;26.10;23.50;;;;;;;5.61;100.00;99567.28;2049951;28;20555;-74
2021/09/29 03:57:00;;;;;;;26.73;23.53;;;;;;;5.62;100.00;99568.88;2050147;29;20273;-74
2021/09/29 03:58:02;;;;;;;26.80;23.92;;;;;;;5.61;100.00;99569.13;2049830;28;20624;-73
2021/09/29 03:59:07;;;;;;;27.02;24.13;;;;;;;5.61;100.00;99566.47;2049933;29;20563;-73
2021/09/29 04:00:09;;;;;;;27.83;24.73;;;;;;;5.66;100.00;99569.97;2049940;28;20206;-74
2021/09/29 04:01:10;;;;;;;28.10;25.08;;;;;;;5.65;100.00;99578.97;2049920;29;20191;-74
2021/09/29 04:02:13;;;;;;;27.42;24.55;;;;;;;5.62;100.00;99571.50;2049893;29;20194;-74
2021/09/29 04:03:15;;;;;;;27.60;24.45;;;;;;;5.62;100.00;99573.34;2053874;28;20316;-74
2021/09/29 04:04:15;;;;;;;29.65;25.05;;;;;;;5.66;100.00;99569.97;2057853;28;20652;-74
2021/09/29 04:05:17;;;;;;;27.77;24.50;;;;;;;5.64;100.00;99566.75;2057866;28;20536;-74
2021/09/29 04:06:18;;;;;;;26.33;23.60;;;;;;;5.71;100.00;99561.25;2049236;29;20199;-73
2021/09/29 04:07:20;;;;;;;27.50;24.20;;;;;;;5.87;100.00;99559.56;2049369;28;20221;-74
2021/09/29 04:08:21;;;;;;;26.58;23.77;;;;;;;5.88;100.00;99566.44;2049227;29;20454;-74
2021/09/29 04:09:22;;;;;;;28.63;24.23;;;;;;;5.82;100.00;99565.63;2049331;29;20229;-73
2021/09/29 04:10:23;;;;;;;26.35;23.73;;;;;;;5.89;100.00;99560.88;2057842;28;20193;-73
2021/09/29 04:11:25;;;;;;;27.67;24.23;;;;;;;6.00;100.00;99563.69;2057859;28;20193;-74
2021/09/29 04:12:28;;;;;;;28.98;25.98;;;;;;;5.90;100.00;99548.44;2058078;28;20194;-74
2021/09/29 04:13:31;;;;;;;27.63;24.85;;;;;;;6.03;100.00;99560.50;2049193;29;20198;-73
2021/09/29 04:14:33;;;;;;;28.58;25.55;;;;;;;5.94;100.00;99550.38;2049504;28;20205;-74
2021/09/29 04:15:35;;;;;;;29.92;25.55;;;;;;;5.87;100.00;99547.09;2057861;28;20182;-73
2021/09/29 04:16:35;;;;;;;31.90;25.65;;;;;;;5.82;100.00;99546.25;2057843;28;20583;-73
2021/09/29 04:17:38;;;;;;;29.53;26.43;;;;;;;5.82;100.00;99540.97;2057819;28;20190;-74
2021/09/29 04:18:41;;;;;;;29.27;26.27;;;;;;;5.89;100.00;99544.19;2057811;28;20559;-74
2021/09/29 04:19:43;;;;;;;27.63;25.00;;;;;;;5.88;100.00;99537.31;2057814;28;20192;-74
2021/09/29 04:20:44;;;;;;;29.45;26.42;;;;;;;5.90;100.00;99543.16;2049112;29;20301;-74
2021/09/29 04:21:46;;;;;;;29.17;26.13;;;;;;;5.91;100.00;99547.44;2041275;29;20199;-74
2021/09/29 04:22:47;;;;;;;25.50;22.77;;;;;;;5.98;100.00;99540.06;2049310;28;20198;-74
2021/09/29 04:23:48;;;;;;;26.23;23.47;;;;;;;5.99;100.00;99538.22;2057848;28;20281;-74
2021/09/29 04:24:49;;;;;;;27.42;24.50;;;;;;;5.94;100.00;99539.00;2059513;28;20194;-73
2021/09/29 04:25:52;;;;;;;27.42;24.50;;;;;;;5.92;100.00;99541.09;2050757;29;20198;-74
2021/09/29 04:26:55;;;;;;;26.88;24.00;;;;;;;5.94;100.00;99542.44;2050755;29;20260;-74
2021/09/29 04:27:57;;;;;;;29.02;24.90;;;;;;;5.94;100.00;99539.78;2051151;28;20202;-74
2021/09/29 04:28:58;;;;;;;27.25;24.33;;;;;;;5.98;100.00;99545.38;2050722;29;20560;-74
2021/09/29 04:30:00;;;;;;;26.50;23.70;;;;;;;6.05;100.00;99548.59;2050868;29;20245;-74
2021/09/29 04:31:02;;;;;;;28.95;24.85;;;;;;;6.00;100.00;99542.47;2050701;29;20281;-74
2021/09/29 04:32:04;;;;;;;28.10;24.90;;;;;;;5.95;100.00;99536.09;2051000;28;20624;-74
2021/09/29 04:33:09;;;;;;;30.35;24.67;;;;;;;5.94;100.00;99541.63;2059428;28;20197;-74
2021/09/29 04:34:11;;;;;;;26.83;23.77;;;;;;;5.89;100.00;99537.06;2050707;29;20205;-74
2021/09/29 04:35:12;;;;;;;26.30;23.67;;;;;;;5.99;100.00;99536.38;2051083;28;20201;-74
2021/09/29 04:36:14;;;;;;;25.83;23.30;;;;;;;5.96;100.00;99536.88;2059631;28;20190;-73
2021/09/29 04:37:15;;;;;;;28.70;23.98;;;;;;;5.96;100.00;99536.88;2059393;28;20189;-74
2021/09/29 04:38:16;;;;;;;26.97;24.17;;;;;;;5.97;100.00;99535.81;2050715;29;20292;-73
2021/09/29 04:39:17;;;;;;;26.98;24.10;;;;;;;6.01;100.00;99528.19;2051034;28;20202;-74
2021/09/29 04:40:22;;;;;;;34.22;24.77;;;;;;;6.02;100.00;99535.06;2059371;28;20190;-73
2021/09/29 04:41:24;;;;;;;26.50;23.73;;;;;;;6.01;100.00;99533.47;2050668;29;20232;-74
2021/09/29 04:42:26;;;;;;;28.77;23.77;;;;;;;6.00;100.00;99535.34;2050865;28;20586;-74
2021/09/29 04:43:26;;;;;;;35.33;24.60;;;;;;;6.04;100.00;99543.56;2059473;28;20540;-74
2021/09/29 04:44:28;;;;;;;27.03;24.17;;;;;;;5.98;100.00;99540.06;2059361;28;20267;-74
2021/09/29 04:45:29;;;;;;;28.88;23.45;;;;;;;5.98;100.00;99545.38;2050672;29;20281;-74
2021/09/29 04:46:31;;;;;;;26.80;24.00;;;;;;;5.97;100.00;99538.47;2050800;28;20190;-74